sensor_id;sensor_type;location;lat;lon;timestamp;P1;durP1;ratioP1;P2;durP2;ratioP2
76608;SDS011;65928;53.936;27.540;2023-01-24T00:02:03;12.40;;;6.63;;
76608;SDS011;65928;53.936;27.540;2023-01-24T00:04:28;13.73;;;7.32;;
76608;SDS011;65928;53.936;27.540;2023-01-24T00:06:54;11.68;;;6.10;;
76608;SDS011;65928;53.936;27.540;2023-01-24T00:09:19;14.23;;;6.07;;
76608;SDS011;65928;53.936;27.540;2023-01-24T00:11:44;14.05;;;7.53;;
76608;SDS011;65928;53.936;27.540;2023-01-24T00:14:10;12.32;;;6.60;;
76608;SDS011;65928;53.936;27.540;2023-01-24T00:16:35;18.25;;;6.80;;
76608;SDS011;65928;53.936;27.540;2023-01-24T00:19:01;16.88;;;7.32;;
76608;SDS011;65928;53.936;27.540;2023-01-24T00:21:26;11.95;;;6.90;;
76608;SDS011;65928;53.936;27.540;2023-01-24T00:23:53;10.93;;;7.22;;
76608;SDS011;65928;53.936;27.540;2023-01-24T00:26:19;14.63;;;7.07;;
76608;SDS011;65928;53.936;27.540;2023-01-24T00:28:46;11.93;;;6.88;;
76608;SDS011;65928;53.936;27.540;2023-01-24T00:31:12;16.10;;;6.07;;
76608;SDS011;65928;53.936;27.540;2023-01-24T00:33:38;16.35;;;7.80;;
76608;SDS011;65928;53.936;27.540;2023-01-24T00:36:03;10.48;;;6.30;;
76608;SDS011;65928;53.936;27.540;2023-01-24T00:38:29;15.65;;;8.07;;
76608;SDS011;65928;53.936;27.540;2023-01-24T00:40:55;15.05;;;6.57;;
76608;SDS011;65928;53.936;27.540;2023-01-24T00:43:21;12.10;;;6.47;;
76608;SDS011;65928;53.936;27.540;2023-01-24T00:45:47;13.95;;;7.43;;
76608;SDS011;65928;53.936;27.540;2023-01-24T00:48:13;11.43;;;6.20;;
76608;SDS011;65928;53.936;27.540;2023-01-24T00:50:39;11.40;;;5.97;;
76608;SDS011;65928;53.936;27.540;2023-01-24T00:53:05;11.60;;;5.88;;
76608;SDS011;65928;53.936;27.540;2023-01-24T00:55:31;12.30;;;6.07;;
76608;SDS011;65928;53.936;27.540;2023-01-24T00:57:56;12.57;;;7.10;;
76608;SDS011;65928;53.936;27.540;2023-01-24T01:00:22;12.48;;;6.50;;
76608;SDS011;65928;53.936;27.540;2023-01-24T01:02:48;12.05;;;6.75;;
76608;SDS011;65928;53.936;27.540;2023-01-24T01:05:15;11.80;;;6.50;;
76608;SDS011;65928;53.936;27.540;2023-01-24T01:07:41;15.25;;;8.48;;
76608;SDS011;65928;53.936;27.540;2023-01-24T01:10:07;13.00;;;7.05;;
76608;SDS011;65928;53.936;27.540;2023-01-24T01:12:33;11.10;;;6.07;;
76608;SDS011;65928;53.936;27.540;2023-01-24T01:14:58;12.73;;;7.70;;
76608;SDS011;65928;53.936;27.540;2023-01-24T01:17:24;16.33;;;7.68;;
76608;SDS011;65928;53.936;27.540;2023-01-24T01:19:53;13.60;;;6.45;;
76608;SDS011;65928;53.936;27.540;2023-01-24T01:22:19;13.52;;;7.85;;
76608;SDS011;65928;53.936;27.540;2023-01-24T01:24:45;13.55;;;6.75;;
76608;SDS011;65928;53.936;27.540;2023-01-24T01:27:11;17.20;;;8.48;;
76608;SDS011;65928;53.936;27.540;2023-01-24T01:29:36;14.75;;;6.53;;
76608;SDS011;65928;53.936;27.540;2023-01-24T01:32:02;16.77;;;6.68;;
76608;SDS011;65928;53.936;27.540;2023-01-24T01:34:27;13.88;;;7.40;;
76608;SDS011;65928;53.936;27.540;2023-01-24T01:36:53;15.43;;;7.68;;
76608;SDS011;65928;53.936;27.540;2023-01-24T01:39:18;17.60;;;8.05;;
76608;SDS011;65928;53.936;27.540;2023-01-24T01:41:44;15.52;;;7.95;;
76608;SDS011;65928;53.936;27.540;2023-01-24T01:44:42;17.60;;;8.60;;
76608;SDS011;65928;53.936;27.540;2023-01-24T01:49:50;23.20;;;10.27;;
76608;SDS011;65928;53.936;27.540;2023-01-24T01:52:17;15.57;;;8.30;;
76608;SDS011;65928;53.936;27.540;2023-01-24T01:54:43;19.38;;;9.57;;
76608;SDS011;65928;53.936;27.540;2023-01-24T01:57:18;17.60;;;8.25;;
76608;SDS011;65928;53.936;27.540;2023-01-24T01:59:51;18.25;;;7.90;;
76608;SDS011;65928;53.936;27.540;2023-01-24T02:02:20;25.90;;;10.20;;
76608;SDS011;65928;53.936;27.540;2023-01-24T02:04:49;14.82;;;7.40;;
76608;SDS011;65928;53.936;27.540;2023-01-24T02:09:47;19.08;;;8.75;;
76608;SDS011;65928;53.936;27.540;2023-01-24T02:12:20;13.45;;;7.05;;
76608;SDS011;65928;53.936;27.540;2023-01-24T02:15:02;14.20;;;8.05;;
76608;SDS011;65928;53.936;27.540;2023-01-24T02:17:48;11.48;;;7.03;;
76608;SDS011;65928;53.936;27.540;2023-01-24T02:28:26;15.90;;;7.43;;
76608;SDS011;65928;53.936;27.540;2023-01-24T02:30:55;9.02;;;5.78;;
76608;SDS011;65928;53.936;27.540;2023-01-24T02:33:21;14.45;;;7.97;;
76608;SDS011;65928;53.936;27.540;2023-01-24T02:35:47;11.07;;;5.35;;
76608;SDS011;65928;53.936;27.540;2023-01-24T02:38:16;12.95;;;7.30;;
76608;SDS011;65928;53.936;27.540;2023-01-24T02:40:46;13.10;;;7.47;;
76608;SDS011;65928;53.936;27.540;2023-01-24T02:43:16;13.68;;;6.70;;
76608;SDS011;65928;53.936;27.540;2023-01-24T02:45:44;14.00;;;6.95;;
76608;SDS011;65928;53.936;27.540;2023-01-24T02:48:09;11.23;;;6.30;;
76608;SDS011;65928;53.936;27.540;2023-01-24T02:50:35;14.50;;;7.60;;
76608;SDS011;65928;53.936;27.540;2023-01-24T02:53:19;12.98;;;5.90;;
76608;SDS011;65928;53.936;27.540;2023-01-24T02:55:59;14.23;;;7.05;;
76608;SDS011;65928;53.936;27.540;2023-01-24T02:58:45;13.45;;;6.47;;
76608;SDS011;65928;53.936;27.540;2023-01-24T03:01:11;12.65;;;8.20;;
76608;SDS011;65928;53.936;27.540;2023-01-24T03:03:37;13.52;;;8.25;;
76608;SDS011;65928;53.936;27.540;2023-01-24T03:06:02;16.63;;;7.93;;
76608;SDS011;65928;53.936;27.540;2023-01-24T03:08:30;14.07;;;8.18;;
76608;SDS011;65928;53.936;27.540;2023-01-24T03:10:57;12.63;;;6.75;;
76608;SDS011;65928;53.936;27.540;2023-01-24T03:13:23;12.68;;;7.65;;
76608;SDS011;65928;53.936;27.540;2023-01-24T03:16:08;13.68;;;7.10;;
76608;SDS011;65928;53.936;27.540;2023-01-24T03:18:52;13.55;;;7.70;;
76608;SDS011;65928;53.936;27.540;2023-01-24T03:21:36;13.23;;;6.90;;
76608;SDS011;65928;53.936;27.540;2023-01-24T03:24:21;13.10;;;7.85;;
76608;SDS011;65928;53.936;27.540;2023-01-24T03:27:05;15.30;;;8.07;;
76608;SDS011;65928;53.936;27.540;2023-01-24T03:29:50;14.18;;;6.88;;
76608;SDS011;65928;53.936;27.540;2023-01-24T03:32:34;15.05;;;7.57;;
76608;SDS011;65928;53.936;27.540;2023-01-24T03:35:18;16.33;;;8.55;;
76608;SDS011;65928;53.936;27.540;2023-01-24T03:37:43;13.55;;;7.70;;
76608;SDS011;65928;53.936;27.540;2023-01-24T03:40:27;16.55;;;8.45;;
76608;SDS011;65928;53.936;27.540;2023-01-24T03:42:53;17.10;;;9.32;;
76608;SDS011;65928;53.936;27.540;2023-01-24T03:47:49;13.13;;;7.97;;
76608;SDS011;65928;53.936;27.540;2023-01-24T03:50:21;15.80;;;9.77;;
76608;SDS011;65928;53.936;27.540;2023-01-24T03:53:18;15.90;;;9.23;;
76608;SDS011;65928;53.936;27.540;2023-01-24T03:55:44;17.67;;;9.68;;
76608;SDS011;65928;53.936;27.540;2023-01-24T03:58:10;17.55;;;9.77;;
76608;SDS011;65928;53.936;27.540;2023-01-24T04:00:37;14.40;;;7.10;;
76608;SDS011;65928;53.936;27.540;2023-01-24T04:03:04;14.25;;;7.93;;
76608;SDS011;65928;53.936;27.540;2023-01-24T04:05:31;14.77;;;8.88;;
76608;SDS011;65928;53.936;27.540;2023-01-24T04:07:57;13.45;;;7.45;;
76608;SDS011;65928;53.936;27.540;2023-01-24T04:10:23;13.23;;;8.32;;
76608;SDS011;65928;53.936;27.540;2023-01-24T04:12:48;16.90;;;9.32;;
76608;SDS011;65928;53.936;27.540;2023-01-24T04:15:18;17.83;;;9.98;;
76608;SDS011;65928;53.936;27.540;2023-01-24T04:17:48;15.27;;;8.50;;
76608;SDS011;65928;53.936;27.540;2023-01-24T04:20:14;17.83;;;10.80;;
76608;SDS011;65928;53.936;27.540;2023-01-24T04:22:40;16.25;;;10.23;;
76608;SDS011;65928;53.936;27.540;2023-01-24T04:25:05;16.70;;;8.85;;
76608;SDS011;65928;53.936;27.540;2023-01-24T04:27:31;19.58;;;10.93;;
76608;SDS011;65928;53.936;27.540;2023-01-24T04:29:57;16.13;;;8.65;;
76608;SDS011;65928;53.936;27.540;2023-01-24T04:32:22;19.20;;;12.07;;
76608;SDS011;65928;53.936;27.540;2023-01-24T04:34:48;12.45;;;7.43;;
76608;SDS011;65928;53.936;27.540;2023-01-24T04:37:13;13.85;;;8.85;;
76608;SDS011;65928;53.936;27.540;2023-01-24T04:39:39;11.88;;;8.00;;
76608;SDS011;65928;53.936;27.540;2023-01-24T04:42:04;15.82;;;10.77;;
76608;SDS011;65928;53.936;27.540;2023-01-24T04:44:31;14.20;;;8.57;;
76608;SDS011;65928;53.936;27.540;2023-01-24T04:46:57;13.98;;;9.18;;
76608;SDS011;65928;53.936;27.540;2023-01-24T04:49:22;11.00;;;7.50;;
76608;SDS011;65928;53.936;27.540;2023-01-24T04:51:48;12.68;;;7.53;;
76608;SDS011;65928;53.936;27.540;2023-01-24T04:54:15;12.23;;;7.35;;
76608;SDS011;65928;53.936;27.540;2023-01-24T04:56:41;11.07;;;6.75;;
76608;SDS011;65928;53.936;27.540;2023-01-24T04:59:07;11.30;;;6.47;;
76608;SDS011;65928;53.936;27.540;2023-01-24T05:01:32;11.32;;;7.38;;
76608;SDS011;65928;53.936;27.540;2023-01-24T05:03:58;10.48;;;7.22;;
76608;SDS011;65928;53.936;27.540;2023-01-24T05:06:28;12.25;;;7.55;;
76608;SDS011;65928;53.936;27.540;2023-01-24T05:08:55;12.25;;;6.50;;
76608;SDS011;65928;53.936;27.540;2023-01-24T05:11:21;11.38;;;7.38;;
76608;SDS011;65928;53.936;27.540;2023-01-24T05:13:47;12.50;;;6.38;;
76608;SDS011;65928;53.936;27.540;2023-01-24T05:16:13;13.48;;;7.78;;
76608;SDS011;65928;53.936;27.540;2023-01-24T05:18:39;12.20;;;6.43;;
76608;SDS011;65928;53.936;27.540;2023-01-24T05:21:05;11.35;;;7.47;;
76608;SDS011;65928;53.936;27.540;2023-01-24T05:23:35;10.00;;;6.38;;
76608;SDS011;65928;53.936;27.540;2023-01-24T05:26:01;12.50;;;6.95;;
76608;SDS011;65928;53.936;27.540;2023-01-24T05:28:28;8.85;;;6.43;;
76608;SDS011;65928;53.936;27.540;2023-01-24T05:30:57;17.00;;;11.13;;
76608;SDS011;65928;53.936;27.540;2023-01-24T05:33:24;14.73;;;10.63;;
76608;SDS011;65928;53.936;27.540;2023-01-24T05:35:56;18.58;;;11.80;;
76608;SDS011;65928;53.936;27.540;2023-01-24T05:38:25;14.35;;;10.07;;
76608;SDS011;65928;53.936;27.540;2023-01-24T05:40:50;14.07;;;8.75;;
76608;SDS011;65928;53.936;27.540;2023-01-24T05:43:16;10.55;;;7.43;;
76608;SDS011;65928;53.936;27.540;2023-01-24T05:45:41;12.90;;;8.88;;
76608;SDS011;65928;53.936;27.540;2023-01-24T05:48:07;12.57;;;10.82;;
76608;SDS011;65928;53.936;27.540;2023-01-24T05:50:32;13.55;;;10.40;;
76608;SDS011;65928;53.936;27.540;2023-01-24T05:53:00;13.82;;;11.77;;
76608;SDS011;65928;53.936;27.540;2023-01-24T05:55:26;14.60;;;10.23;;
76608;SDS011;65928;53.936;27.540;2023-01-24T05:57:52;13.13;;;7.82;;
76608;SDS011;65928;53.936;27.540;2023-01-24T06:00:17;14.13;;;9.93;;
76608;SDS011;65928;53.936;27.540;2023-01-24T06:02:43;12.98;;;8.25;;
76608;SDS011;65928;53.936;27.540;2023-01-24T06:05:09;14.32;;;7.80;;
76608;SDS011;65928;53.936;27.540;2023-01-24T06:07:34;12.07;;;7.55;;
76608;SDS011;65928;53.936;27.540;2023-01-24T06:10:00;19.60;;;10.77;;
76608;SDS011;65928;53.936;27.540;2023-01-24T06:12:25;18.42;;;11.75;;
76608;SDS011;65928;53.936;27.540;2023-01-24T06:14:51;30.27;;;16.95;;
76608;SDS011;65928;53.936;27.540;2023-01-24T06:17:16;25.23;;;16.85;;
76608;SDS011;65928;53.936;27.540;2023-01-24T06:19:42;27.83;;;19.10;;
76608;SDS011;65928;53.936;27.540;2023-01-24T06:25:16;21.17;;;14.80;;
76608;SDS011;65928;53.936;27.540;2023-01-24T06:27:46;19.73;;;13.70;;
76608;SDS011;65928;53.936;27.540;2023-01-24T06:30:13;21.42;;;12.95;;
76608;SDS011;65928;53.936;27.540;2023-01-24T06:32:44;20.17;;;15.10;;
76608;SDS011;65928;53.936;27.540;2023-01-24T06:38:19;15.90;;;11.00;;
76608;SDS011;65928;53.936;27.540;2023-01-24T06:40:48;17.73;;;11.03;;
76608;SDS011;65928;53.936;27.540;2023-01-24T06:43:20;17.13;;;12.40;;
76608;SDS011;65928;53.936;27.540;2023-01-24T06:45:46;16.08;;;10.63;;
76608;SDS011;65928;53.936;27.540;2023-01-24T06:48:12;17.85;;;11.65;;
76608;SDS011;65928;53.936;27.540;2023-01-24T06:50:37;19.00;;;11.50;;
76608;SDS011;65928;53.936;27.540;2023-01-24T06:53:03;20.30;;;13.77;;
76608;SDS011;65928;53.936;27.540;2023-01-24T06:55:29;29.10;;;18.27;;
76608;SDS011;65928;53.936;27.540;2023-01-24T06:57:55;24.33;;;14.40;;
76608;SDS011;65928;53.936;27.540;2023-01-24T07:00:22;16.00;;;10.48;;
76608;SDS011;65928;53.936;27.540;2023-01-24T07:02:48;16.10;;;10.02;;
76608;SDS011;65928;53.936;27.540;2023-01-24T07:05:13;15.98;;;10.38;;
76608;SDS011;65928;53.936;27.540;2023-01-24T07:07:39;17.20;;;10.98;;
76608;SDS011;65928;53.936;27.540;2023-01-24T07:10:04;15.00;;;9.35;;
76608;SDS011;65928;53.936;27.540;2023-01-24T07:12:30;17.38;;;10.45;;
76608;SDS011;65928;53.936;27.540;2023-01-24T07:14:56;14.90;;;10.07;;
76608;SDS011;65928;53.936;27.540;2023-01-24T07:17:21;17.70;;;9.95;;
76608;SDS011;65928;53.936;27.540;2023-01-24T07:19:47;18.70;;;10.80;;
76608;SDS011;65928;53.936;27.540;2023-01-24T07:22:13;25.77;;;13.77;;
76608;SDS011;65928;53.936;27.540;2023-01-24T07:24:39;30.63;;;18.45;;
76608;SDS011;65928;53.936;27.540;2023-01-24T07:27:06;31.67;;;18.80;;
76608;SDS011;65928;53.936;27.540;2023-01-24T07:29:31;26.00;;;14.85;;
76608;SDS011;65928;53.936;27.540;2023-01-24T07:31:57;28.23;;;17.05;;
76608;SDS011;65928;53.936;27.540;2023-01-24T07:34:22;29.92;;;17.40;;
76608;SDS011;65928;53.936;27.540;2023-01-24T07:36:48;31.65;;;19.23;;
76608;SDS011;65928;53.936;27.540;2023-01-24T07:39:13;29.02;;;18.63;;
76608;SDS011;65928;53.936;27.540;2023-01-24T07:41:39;21.40;;;16.10;;
76608;SDS011;65928;53.936;27.540;2023-01-24T07:44:07;20.95;;;15.30;;
76608;SDS011;65928;53.936;27.540;2023-01-24T07:46:33;31.45;;;21.90;;
76608;SDS011;65928;53.936;27.540;2023-01-24T07:48:59;26.95;;;18.25;;
76608;SDS011;65928;53.936;27.540;2023-01-24T07:51:24;30.33;;;20.48;;
76608;SDS011;65928;53.936;27.540;2023-01-24T07:53:50;27.00;;;17.40;;
76608;SDS011;65928;53.936;27.540;2023-01-24T07:56:16;28.17;;;19.92;;
76608;SDS011;65928;53.936;27.540;2023-01-24T07:58:41;24.55;;;15.88;;
76608;SDS011;65928;53.936;27.540;2023-01-24T08:01:07;21.77;;;13.65;;
76608;SDS011;65928;53.936;27.540;2023-01-24T08:03:32;22.67;;;13.90;;
76608;SDS011;65928;53.936;27.540;2023-01-24T08:05:58;25.05;;;16.73;;
76608;SDS011;65928;53.936;27.540;2023-01-24T08:08:24;20.30;;;14.23;;
76608;SDS011;65928;53.936;27.540;2023-01-24T08:10:50;23.35;;;15.35;;
76608;SDS011;65928;53.936;27.540;2023-01-24T08:13:15;25.27;;;16.98;;
76608;SDS011;65928;53.936;27.540;2023-01-24T08:15:41;21.58;;;15.50;;
76608;SDS011;65928;53.936;27.540;2023-01-24T08:18:06;18.67;;;13.88;;
76608;SDS011;65928;53.936;27.540;2023-01-24T08:20:32;18.67;;;12.50;;
76608;SDS011;65928;53.936;27.540;2023-01-24T08:22:57;20.92;;;13.32;;
76608;SDS011;65928;53.936;27.540;2023-01-24T08:25:24;22.25;;;14.77;;
76608;SDS011;65928;53.936;27.540;2023-01-24T08:27:50;20.05;;;13.45;;
76608;SDS011;65928;53.936;27.540;2023-01-24T08:30:16;18.17;;;11.45;;
76608;SDS011;65928;53.936;27.540;2023-01-24T08:32:41;21.38;;;14.13;;
76608;SDS011;65928;53.936;27.540;2023-01-24T08:35:07;19.88;;;11.23;;
76608;SDS011;65928;53.936;27.540;2023-01-24T08:37:33;15.88;;;11.25;;
76608;SDS011;65928;53.936;27.540;2023-01-24T08:39:58;15.85;;;10.55;;
76608;SDS011;65928;53.936;27.540;2023-01-24T08:42:24;19.83;;;13.00;;
76608;SDS011;65928;53.936;27.540;2023-01-24T08:44:50;18.65;;;13.18;;
76608;SDS011;65928;53.936;27.540;2023-01-24T08:47:16;20.95;;;12.60;;
76608;SDS011;65928;53.936;27.540;2023-01-24T08:49:42;22.25;;;12.88;;
76608;SDS011;65928;53.936;27.540;2023-01-24T08:52:07;24.13;;;15.70;;
76608;SDS011;65928;53.936;27.540;2023-01-24T08:54:33;18.67;;;11.82;;
76608;SDS011;65928;53.936;27.540;2023-01-24T08:57:01;18.83;;;13.77;;
76608;SDS011;65928;53.936;27.540;2023-01-24T08:59:27;19.27;;;13.10;;
76608;SDS011;65928;53.936;27.540;2023-01-24T09:01:52;19.20;;;12.82;;
76608;SDS011;65928;53.936;27.540;2023-01-24T09:04:18;18.77;;;12.48;;
76608;SDS011;65928;53.936;27.540;2023-01-24T09:06:43;19.35;;;13.38;;
76608;SDS011;65928;53.936;27.540;2023-01-24T09:09:09;21.05;;;13.07;;
76608;SDS011;65928;53.936;27.540;2023-01-24T09:11:34;22.65;;;14.73;;
76608;SDS011;65928;53.936;27.540;2023-01-24T09:14:00;23.77;;;15.15;;
76608;SDS011;65928;53.936;27.540;2023-01-24T09:16:26;15.93;;;11.15;;
76608;SDS011;65928;53.936;27.540;2023-01-24T09:18:52;17.98;;;11.13;;
76608;SDS011;65928;53.936;27.540;2023-01-24T09:21:18;19.45;;;13.60;;
76608;SDS011;65928;53.936;27.540;2023-01-24T09:23:45;24.25;;;15.57;;
76608;SDS011;65928;53.936;27.540;2023-01-24T09:26:10;15.90;;;11.68;;
76608;SDS011;65928;53.936;27.540;2023-01-24T09:28:36;17.73;;;11.38;;
76608;SDS011;65928;53.936;27.540;2023-01-24T09:31:02;19.98;;;12.15;;
76608;SDS011;65928;53.936;27.540;2023-01-24T09:33:28;15.80;;;10.80;;
76608;SDS011;65928;53.936;27.540;2023-01-24T09:35:57;16.10;;;10.70;;
76608;SDS011;65928;53.936;27.540;2023-01-24T09:38:25;18.70;;;11.23;;
76608;SDS011;65928;53.936;27.540;2023-01-24T09:46:22;16.98;;;11.55;;
76608;SDS011;65928;53.936;27.540;2023-01-24T09:49:05;19.58;;;12.55;;
76608;SDS011;65928;53.936;27.540;2023-01-24T09:51:35;28.50;;;17.35;;
76608;SDS011;65928;53.936;27.540;2023-01-24T09:54:05;23.38;;;12.80;;
76608;SDS011;65928;53.936;27.540;2023-01-24T10:01:46;16.13;;;9.57;;
76608;SDS011;65928;53.936;27.540;2023-01-24T10:12:51;22.58;;;14.15;;
76608;SDS011;65928;53.936;27.540;2023-01-24T10:23:30;22.27;;;14.80;;
76608;SDS011;65928;53.936;27.540;2023-01-24T10:26:01;18.55;;;12.23;;
76608;SDS011;65928;53.936;27.540;2023-01-24T10:28:37;24.55;;;15.05;;
76608;SDS011;65928;53.936;27.540;2023-01-24T10:31:14;23.05;;;15.85;;
76608;SDS011;65928;53.936;27.540;2023-01-24T10:33:52;21.65;;;13.93;;
76608;SDS011;65928;53.936;27.540;2023-01-24T10:36:29;23.88;;;15.95;;
76608;SDS011;65928;53.936;27.540;2023-01-24T10:39:03;23.88;;;16.30;;
76608;SDS011;65928;53.936;27.540;2023-01-24T10:41:32;19.48;;;14.05;;
76608;SDS011;65928;53.936;27.540;2023-01-24T10:44:20;16.52;;;11.35;;
76608;SDS011;65928;53.936;27.540;2023-01-24T10:49:35;19.17;;;14.10;;
76608;SDS011;65928;53.936;27.540;2023-01-24T10:54:52;16.55;;;11.20;;
76608;SDS011;65928;53.936;27.540;2023-01-24T11:00:15;20.65;;;14.50;;
76608;SDS011;65928;53.936;27.540;2023-01-24T11:02:53;22.10;;;14.63;;
76608;SDS011;65928;53.936;27.540;2023-01-24T11:05:21;20.77;;;12.70;;
76608;SDS011;65928;53.936;27.540;2023-01-24T11:08:10;17.38;;;11.38;;
76608;SDS011;65928;53.936;27.540;2023-01-24T11:10:40;18.10;;;13.48;;
76608;SDS011;65928;53.936;27.540;2023-01-24T11:13:26;19.67;;;12.48;;
76608;SDS011;65928;53.936;27.540;2023-01-24T11:18:52;14.95;;;9.80;;
76608;SDS011;65928;53.936;27.540;2023-01-24T11:21:22;15.95;;;10.93;;
76608;SDS011;65928;53.936;27.540;2023-01-24T11:24:21;14.13;;;10.13;;
76608;SDS011;65928;53.936;27.540;2023-01-24T11:26:57;13.95;;;9.77;;
76608;SDS011;65928;53.936;27.540;2023-01-24T11:29:23;14.27;;;9.23;;
76608;SDS011;65928;53.936;27.540;2023-01-24T11:31:56;13.13;;;8.77;;
76608;SDS011;65928;53.936;27.540;2023-01-24T11:34:32;12.05;;;8.98;;
76608;SDS011;65928;53.936;27.540;2023-01-24T11:37:18;10.82;;;7.63;;
76608;SDS011;65928;53.936;27.540;2023-01-24T11:46:23;13.07;;;8.00;;
76608;SDS011;65928;53.936;27.540;2023-01-24T11:48:21;11.38;;;6.38;;
76608;SDS011;65928;53.936;27.540;2023-01-24T11:53:34;7.63;;;5.10;;
76608;SDS011;65928;53.936;27.540;2023-01-24T12:02:17;7.72;;;4.47;;
76608;SDS011;65928;53.936;27.540;2023-01-24T12:09:53;6.63;;;4.50;;
76608;SDS011;65928;53.936;27.540;2023-01-24T12:12:34;7.68;;;5.40;;
76608;SDS011;65928;53.936;27.540;2023-01-24T12:20:23;19.55;;;12.93;;
76608;SDS011;65928;53.936;27.540;2023-01-24T12:23:11;15.07;;;11.13;;
76608;SDS011;65928;53.936;27.540;2023-01-24T12:25:45;12.43;;;7.32;;
76608;SDS011;65928;53.936;27.540;2023-01-24T12:28:24;10.57;;;7.50;;
76608;SDS011;65928;53.936;27.540;2023-01-24T12:30:55;10.20;;;7.00;;
76608;SDS011;65928;53.936;27.540;2023-01-24T12:36:27;7.78;;;5.78;;
76608;SDS011;65928;53.936;27.540;2023-01-24T12:39:00;13.50;;;7.90;;
76608;SDS011;65928;53.936;27.540;2023-01-24T12:41:36;10.40;;;7.85;;
76608;SDS011;65928;53.936;27.540;2023-01-24T12:49:30;12.27;;;8.65;;
76608;SDS011;65928;53.936;27.540;2023-01-24T12:52:09;8.18;;;4.95;;
76608;SDS011;65928;53.936;27.540;2023-01-24T12:54:45;9.63;;;4.60;;
76608;SDS011;65928;53.936;27.540;2023-01-24T12:57:25;7.30;;;5.00;;
76608;SDS011;65928;53.936;27.540;2023-01-24T12:59:55;10.27;;;5.85;;
76608;SDS011;65928;53.936;27.540;2023-01-24T13:05:31;8.20;;;5.55;;
76608;SDS011;65928;53.936;27.540;2023-01-24T13:13:24;10.27;;;7.25;;
76608;SDS011;65928;53.936;27.540;2023-01-24T13:21:21;9.20;;;6.55;;
76608;SDS011;65928;53.936;27.540;2023-01-24T13:29:41;9.70;;;7.88;;
76608;SDS011;65928;53.936;27.540;2023-01-24T13:32:33;8.88;;;5.13;;
76608;SDS011;65928;53.936;27.540;2023-01-24T13:35:10;8.18;;;5.40;;
76608;SDS011;65928;53.936;27.540;2023-01-24T13:37:40;9.00;;;5.50;;
76608;SDS011;65928;53.936;27.540;2023-01-24T13:42:35;9.00;;;5.07;;
76608;SDS011;65928;53.936;27.540;2023-01-24T13:47:50;9.27;;;4.78;;
76608;SDS011;65928;53.936;27.540;2023-01-24T13:50:23;7.05;;;4.15;;
76608;SDS011;65928;53.936;27.540;2023-01-24T13:52:55;8.68;;;4.97;;
76608;SDS011;65928;53.936;27.540;2023-01-24T13:57:48;7.80;;;4.95;;
76608;SDS011;65928;53.936;27.540;2023-01-24T14:00:52;8.40;;;5.03;;
76608;SDS011;65928;53.936;27.540;2023-01-24T14:05:55;6.78;;;3.88;;
76608;SDS011;65928;53.936;27.540;2023-01-24T14:11:35;7.03;;;4.25;;
76608;SDS011;65928;53.936;27.540;2023-01-24T14:18:49;6.72;;;3.97;;
76608;SDS011;65928;53.936;27.540;2023-01-24T14:21:25;7.90;;;3.83;;
76608;SDS011;65928;53.936;27.540;2023-01-24T14:23:56;8.52;;;5.95;;
76608;SDS011;65928;53.936;27.540;2023-01-24T14:26:26;6.93;;;4.13;;
76608;SDS011;65928;53.936;27.540;2023-01-24T14:37:08;8.55;;;4.50;;
76608;SDS011;65928;53.936;27.540;2023-01-24T14:39:35;8.63;;;5.10;;
76608;SDS011;65928;53.936;27.540;2023-01-24T14:42:01;8.20;;;4.88;;
76608;SDS011;65928;53.936;27.540;2023-01-24T14:46:54;9.55;;;6.32;;
76608;SDS011;65928;53.936;27.540;2023-01-24T14:51:54;12.38;;;8.93;;
76608;SDS011;65928;53.936;27.540;2023-01-24T14:54:20;11.43;;;7.70;;
76608;SDS011;65928;53.936;27.540;2023-01-24T14:56:47;10.15;;;6.10;;
76608;SDS011;65928;53.936;27.540;2023-01-24T14:59:13;9.68;;;6.22;;
76608;SDS011;65928;53.936;27.540;2023-01-24T15:01:43;8.55;;;4.95;;
76608;SDS011;65928;53.936;27.540;2023-01-24T15:04:21;10.20;;;5.70;;
76608;SDS011;65928;53.936;27.540;2023-01-24T15:07:33;8.75;;;5.03;;
76608;SDS011;65928;53.936;27.540;2023-01-24T15:09:47;8.45;;;5.25;;
76608;SDS011;65928;53.936;27.540;2023-01-24T15:12:19;13.10;;;7.38;;
76608;SDS011;65928;53.936;27.540;2023-01-24T15:14:56;11.35;;;7.40;;
76608;SDS011;65928;53.936;27.540;2023-01-24T15:17:27;11.95;;;8.68;;
76608;SDS011;65928;53.936;27.540;2023-01-24T15:19:55;13.02;;;8.40;;
76608;SDS011;65928;53.936;27.540;2023-01-24T15:22:26;17.60;;;10.27;;
76608;SDS011;65928;53.936;27.540;2023-01-24T15:24:56;16.33;;;10.23;;
76608;SDS011;65928;53.936;27.540;2023-01-24T15:30:07;18.30;;;10.95;;
76608;SDS011;65928;53.936;27.540;2023-01-24T15:40:32;7.68;;;5.03;;
76608;SDS011;65928;53.936;27.540;2023-01-24T15:43:00;9.18;;;5.78;;
76608;SDS011;65928;53.936;27.540;2023-01-24T15:45:52;7.50;;;5.10;;
76608;SDS011;65928;53.936;27.540;2023-01-24T15:49:03;9.60;;;6.57;;
76608;SDS011;65928;53.936;27.540;2023-01-24T15:54:26;8.27;;;5.57;;
76608;SDS011;65928;53.936;27.540;2023-01-24T15:56:53;9.50;;;6.40;;
76608;SDS011;65928;53.936;27.540;2023-01-24T15:59:23;7.50;;;5.10;;
76608;SDS011;65928;53.936;27.540;2023-01-24T16:01:49;10.27;;;6.03;;
76608;SDS011;65928;53.936;27.540;2023-01-24T16:04:15;7.57;;;5.78;;
76608;SDS011;65928;53.936;27.540;2023-01-24T16:06:43;8.07;;;4.47;;
76608;SDS011;65928;53.936;27.540;2023-01-24T16:09:11;8.85;;;5.93;;
76608;SDS011;65928;53.936;27.540;2023-01-24T16:11:39;7.82;;;4.72;;
76608;SDS011;65928;53.936;27.540;2023-01-24T16:14:07;8.55;;;6.07;;
76608;SDS011;65928;53.936;27.540;2023-01-24T16:16:39;7.28;;;4.88;;
76608;SDS011;65928;53.936;27.540;2023-01-24T16:19:15;7.63;;;4.85;;
76608;SDS011;65928;53.936;27.540;2023-01-24T16:21:43;7.97;;;5.28;;
76608;SDS011;65928;53.936;27.540;2023-01-24T16:24:09;6.43;;;4.60;;
76608;SDS011;65928;53.936;27.540;2023-01-24T16:26:36;7.13;;;5.22;;
76608;SDS011;65928;53.936;27.540;2023-01-24T16:29:10;7.38;;;5.10;;
76608;SDS011;65928;53.936;27.540;2023-01-24T16:31:39;7.50;;;5.22;;
76608;SDS011;65928;53.936;27.540;2023-01-24T16:34:05;7.68;;;4.95;;
76608;SDS011;65928;53.936;27.540;2023-01-24T16:36:32;8.57;;;5.90;;
76608;SDS011;65928;53.936;27.540;2023-01-24T16:38:58;8.75;;;6.22;;
76608;SDS011;65928;53.936;27.540;2023-01-24T16:41:30;8.93;;;5.95;;
76608;SDS011;65928;53.936;27.540;2023-01-24T16:43:57;9.40;;;5.47;;
76608;SDS011;65928;53.936;27.540;2023-01-24T16:46:23;7.38;;;5.32;;
76608;SDS011;65928;53.936;27.540;2023-01-24T16:48:49;7.60;;;5.25;;
76608;SDS011;65928;53.936;27.540;2023-01-24T16:51:15;6.78;;;5.03;;
76608;SDS011;65928;53.936;27.540;2023-01-24T16:53:45;5.30;;;4.15;;
76608;SDS011;65928;53.936;27.540;2023-01-24T16:56:11;6.28;;;4.60;;
76608;SDS011;65928;53.936;27.540;2023-01-24T16:58:38;8.73;;;5.30;;
76608;SDS011;65928;53.936;27.540;2023-01-24T17:01:09;7.45;;;4.93;;
76608;SDS011;65928;53.936;27.540;2023-01-24T17:03:35;8.05;;;5.50;;
76608;SDS011;65928;53.936;27.540;2023-01-24T17:06:05;7.88;;;4.75;;
76608;SDS011;65928;53.936;27.540;2023-01-24T17:08:36;8.77;;;6.68;;
76608;SDS011;65928;53.936;27.540;2023-01-24T17:11:06;10.50;;;7.57;;